sensor_id;sensor_type;location;lat;lon;timestamp;temperature;humidity
12957;DHT22;6543;48.836;10.092;2023-01-29T00:01:16;-0.60;99.90
12957;DHT22;6543;48.836;10.092;2023-01-29T00:03:44;-0.60;99.90
12957;DHT22;6543;48.836;10.092;2023-01-29T00:06:11;-0.60;99.90
12957;DHT22;6543;48.836;10.092;2023-01-29T00:08:38;-0.60;99.90
12957;DHT22;6543;48.836;10.092;2023-01-29T00:11:07;-0.60;99.90
12957;DHT22;6543;48.836;10.092;2023-01-29T00:13:34;-0.50;99.90
12957;DHT22;6543;48.836;10.092;2023-01-29T00:16:02;-0.50;99.90
12957;DHT22;6543;48.836;10.092;2023-01-29T00:18:29;-0.50;99.90
12957;DHT22;6543;48.836;10.092;2023-01-29T00:20:58;-0.60;99.90
12957;DHT22;6543;48.836;10.092;2023-01-29T00:23:25;-0.60;99.90
12957;DHT22;6543;48.836;10.092;2023-01-29T00:25:51;-0.60;99.90
12957;DHT22;6543;48.836;10.092;2023-01-29T00:28:18;-0.60;99.90
12957;DHT22;6543;48.836;10.092;2023-01-29T00:30:45;-0.60;99.90
12957;DHT22;6543;48.836;10.092;2023-01-29T00:33:12;-0.60;99.90
12957;DHT22;6543;48.836;10.092;2023-01-29T00:35:39;-0.70;99.90
12957;DHT22;6543;48.836;10.092;2023-01-29T00:38:08;-0.60;99.90
12957;DHT22;6543;48.836;10.092;2023-01-29T00:40:37;-0.50;99.90
12957;DHT22;6543;48.836;10.092;2023-01-29T00:43:22;-0.50;99.90
12957;DHT22;6543;48.836;10.092;2023-01-29T00:46:21;-0.50;99.90
12957;DHT22;6543;48.836;10.092;2023-01-29T00:48:48;-0.50;99.90
12957;DHT22;6543;48.836;10.092;2023-01-29T00:51:15;-0.60;99.90
12957;DHT22;6543;48.836;10.092;2023-01-29T00:53:43;-0.70;99.90
12957;DHT22;6543;48.836;10.092;2023-01-29T00:56:10;-0.70;99.90
12957;DHT22;6543;48.836;10.092;2023-01-29T00:58:36;-0.60;99.90
12957;DHT22;6543;48.836;10.092;2023-01-29T01:01:04;-0.60;99.90
12957;DHT22;6543;48.836;10.092;2023-01-29T01:03:30;-0.60;99.90
12957;DHT22;6543;48.836;10.092;2023-01-29T01:06:03;-0.60;99.90
12957;DHT22;6543;48.836;10.092;2023-01-29T01:08:30;-0.60;99.90
12957;DHT22;6543;48.836;10.092;2023-01-29T01:11:16;-0.50;99.90
12957;DHT22;6543;48.836;10.092;2023-01-29T01:13:43;-0.60;99.90
12957;DHT22;6543;48.836;10.092;2023-01-29T01:16:10;-0.60;99.90
12957;DHT22;6543;48.836;10.092;2023-01-29T01:18:37;-0.60;99.90
12957;DHT22;6543;48.836;10.092;2023-01-29T01:21:05;-0.60;99.90
12957;DHT22;6543;48.836;10.092;2023-01-29T01:23:32;-0.70;99.90
12957;DHT22;6543;48.836;10.092;2023-01-29T01:25:59;-0.60;99.90
12957;DHT22;6543;48.836;10.092;2023-01-29T01:28:27;-0.60;99.90
12957;DHT22;6543;48.836;10.092;2023-01-29T01:30:54;-0.60;99.90
12957;DHT22;6543;48.836;10.092;2023-01-29T01:33:21;-0.50;99.90
12957;DHT22;6543;48.836;10.092;2023-01-29T01:35:48;-0.50;99.90
12957;DHT22;6543;48.836;10.092;2023-01-29T01:38:14;-0.50;99.90
12957;DHT22;6543;48.836;10.092;2023-01-29T01:40:44;-0.60;99.90
12957;DHT22;6543;48.836;10.092;2023-01-29T01:43:11;-0.60;99.90
12957;DHT22;6543;48.836;10.092;2023-01-29T01:45:39;-0.50;99.90
12957;DHT22;6543;48.836;10.092;2023-01-29T01:48:10;-0.50;99.90
12957;DHT22;6543;48.836;10.092;2023-01-29T01:50:42;-0.50;99.90
12957;DHT22;6543;48.836;10.092;2023-01-29T01:53:12;-0.50;99.90
12957;DHT22;6543;48.836;10.092;2023-01-29T01:55:43;-0.60;99.90
12957;DHT22;6543;48.836;10.092;2023-01-29T01:58:13;-0.50;99.90
12957;DHT22;6543;48.836;10.092;2023-01-29T02:00:45;-0.50;99.90
12957;DHT22;6543;48.836;10.092;2023-01-29T02:03:12;-0.50;99.90
12957;DHT22;6543;48.836;10.092;2023-01-29T02:05:57;-0.50;99.90
12957;DHT22;6543;48.836;10.092;2023-01-29T02:08:48;-0.60;99.90
12957;DHT22;6543;48.836;10.092;2023-01-29T02:11:35;-0.50;99.90
12957;DHT22;6543;48.836;10.092;2023-01-29T02:14:03;-0.50;99.90
12957;DHT22;6543;48.836;10.092;2023-01-29T02:16:32;-0.50;99.90
12957;DHT22;6543;48.836;10.092;2023-01-29T02:18:59;-0.50;99.90
12957;DHT22;6543;48.836;10.092;2023-01-29T02:24:52;-0.50;99.90
12957;DHT22;6543;48.836;10.092;2023-01-29T02:27:28;-0.50;99.90
12957;DHT22;6543;48.836;10.092;2023-01-29T02:30:02;-0.50;99.90
12957;DHT22;6543;48.836;10.092;2023-01-29T02:32:36;-0.50;99.90
12957;DHT22;6543;48.836;10.092;2023-01-29T02:35:12;-0.50;99.90
12957;DHT22;6543;48.836;10.092;2023-01-29T02:38:05;-0.50;99.90
12957;DHT22;6543;48.836;10.092;2023-01-29T02:40:37;-0.60;99.90
12957;DHT22;6543;48.836;10.092;2023-01-29T02:43:15;-0.60;99.90
12957;DHT22;6543;48.836;10.092;2023-01-29T02:45:51;-0.60;99.90
12957;DHT22;6543;48.836;10.092;2023-01-29T02:48:21;-0.70;99.90
12957;DHT22;6543;48.836;10.092;2023-01-29T02:50:55;-0.70;99.90
12957;DHT22;6543;48.836;10.092;2023-01-29T02:53:26;-0.70;99.90
12957;DHT22;6543;48.836;10.092;2023-01-29T02:55:58;-0.70;99.90
12957;DHT22;6543;48.836;10.092;2023-01-29T02:58:32;-0.70;99.90
12957;DHT22;6543;48.836;10.092;2023-01-29T03:01:06;-0.60;99.90
12957;DHT22;6543;48.836;10.092;2023-01-29T03:03:38;-0.70;99.90
12957;DHT22;6543;48.836;10.092;2023-01-29T03:06:10;-0.80;99.90
12957;DHT22;6543;48.836;10.092;2023-01-29T03:08:48;-0.70;99.90
12957;DHT22;6543;48.836;10.092;2023-01-29T03:11:16;-0.70;99.90
12957;DHT22;6543;48.836;10.092;2023-01-29T03:13:46;-0.80;99.90
12957;DHT22;6543;48.836;10.092;2023-01-29T03:16:20;-0.70;99.90
12957;DHT22;6543;48.836;10.092;2023-01-29T03:18:53;-0.70;99.90
12957;DHT22;6543;48.836;10.092;2023-01-29T03:21:24;-0.70;99.90
12957;DHT22;6543;48.836;10.092;2023-01-29T03:24:12;-0.70;99.90
12957;DHT22;6543;48.836;10.092;2023-01-29T03:27:01;-0.80;99.90
12957;DHT22;6543;48.836;10.092;2023-01-29T03:29:48;-0.80;99.90
12957;DHT22;6543;48.836;10.092;2023-01-29T03:32:35;-0.80;99.90
12957;DHT22;6543;48.836;10.092;2023-01-29T03:35:05;-0.70;99.90
12957;DHT22;6543;48.836;10.092;2023-01-29T03:37:36;-0.70;99.90
12957;DHT22;6543;48.836;10.092;2023-01-29T03:40:06;-0.70;99.90
12957;DHT22;6543;48.836;10.092;2023-01-29T03:42:48;-0.70;99.90
12957;DHT22;6543;48.836;10.092;2023-01-29T03:45:21;-0.60;99.90
12957;DHT22;6543;48.836;10.092;2023-01-29T03:47:59;-0.70;99.90
12957;DHT22;6543;48.836;10.092;2023-01-29T03:50:35;-0.60;99.90
12957;DHT22;6543;48.836;10.092;2023-01-29T03:53:09;-0.60;99.90
12957;DHT22;6543;48.836;10.092;2023-01-29T03:55:45;-0.70;99.90
12957;DHT22;6543;48.836;10.092;2023-01-29T03:58:22;-0.70;99.90
12957;DHT22;6543;48.836;10.092;2023-01-29T04:00:53;-0.70;99.90
12957;DHT22;6543;48.836;10.092;2023-01-29T04:03:28;-0.70;99.90
12957;DHT22;6543;48.836;10.092;2023-01-29T04:06:01;-0.70;99.90
12957;DHT22;6543;48.836;10.092;2023-01-29T04:08:39;-0.70;99.90
12957;DHT22;6543;48.836;10.092;2023-01-29T04:11:11;-0.80;99.90
12957;DHT22;6543;48.836;10.092;2023-01-29T04:13:40;-0.80;99.90
12957;DHT22;6543;48.836;10.092;2023-01-29T04:16:11;-0.80;99.90
12957;DHT22;6543;48.836;10.092;2023-01-29T04:18:44;-0.90;99.90
12957;DHT22;6543;48.836;10.092;2023-01-29T04:21:11;-0.90;99.90
12957;DHT22;6543;48.836;10.092;2023-01-29T04:23:38;-0.90;99.90
12957;DHT22;6543;48.836;10.092;2023-01-29T04:29:13;-1.00;99.90
12957;DHT22;6543;48.836;10.092;2023-01-29T04:31:46;-1.00;99.90
12957;DHT22;6543;48.836;10.092;2023-01-29T04:34:22;-1.00;99.90
12957;DHT22;6543;48.836;10.092;2023-01-29T04:36:58;-1.00;99.90
12957;DHT22;6543;48.836;10.092;2023-01-29T04:39:32;-1.00;99.90
12957;DHT22;6543;48.836;10.092;2023-01-29T04:42:05;-0.90;99.90
12957;DHT22;6543;48.836;10.092;2023-01-29T04:44:40;-0.90;99.90
12957;DHT22;6543;48.836;10.092;2023-01-29T04:47:18;-0.90;99.90
12957;DHT22;6543;48.836;10.092;2023-01-29T04:49:55;-0.90;99.90
12957;DHT22;6543;48.836;10.092;2023-01-29T04:52:32;-0.90;99.90
12957;DHT22;6543;48.836;10.092;2023-01-29T04:55:04;-0.90;99.90
12957;DHT22;6543;48.836;10.092;2023-01-29T04:57:39;-0.90;99.90
12957;DHT22;6543;48.836;10.092;2023-01-29T05:00:11;-0.90;99.90
12957;DHT22;6543;48.836;10.092;2023-01-29T05:02:40;-0.90;99.90
12957;DHT22;6543;48.836;10.092;2023-01-29T05:05:12;-0.80;99.90
12957;DHT22;6543;48.836;10.092;2023-01-29T05:07:41;-0.70;99.90
12957;DHT22;6543;48.836;10.092;2023-01-29T05:10:10;-0.70;99.90
12957;DHT22;6543;48.836;10.092;2023-01-29T05:12:39;-0.70;99.90
12957;DHT22;6543;48.836;10.092;2023-01-29T05:15:10;-0.60;99.90
12957;DHT22;6543;48.836;10.092;2023-01-29T05:17:38;-0.60;99.90
12957;DHT22;6543;48.836;10.092;2023-01-29T05:20:07;-0.60;99.90
12957;DHT22;6543;48.836;10.092;2023-01-29T05:22:37;-0.70;99.90
12957;DHT22;6543;48.836;10.092;2023-01-29T05:25:18;-0.70;99.90
12957;DHT22;6543;48.836;10.092;2023-01-29T05:27:46;-0.70;99.90
12957;DHT22;6543;48.836;10.092;2023-01-29T05:30:36;-0.70;99.90
12957;DHT22;6543;48.836;10.092;2023-01-29T05:33:08;-0.70;99.90
12957;DHT22;6543;48.836;10.092;2023-01-29T05:35:37;-0.60;99.90
12957;DHT22;6543;48.836;10.092;2023-01-29T05:38:05;-0.80;99.90
12957;DHT22;6543;48.836;10.092;2023-01-29T05:40:32;-0.80;99.90
12957;DHT22;6543;48.836;10.092;2023-01-29T05:42:59;-0.80;99.90
12957;DHT22;6543;48.836;10.092;2023-01-29T05:45:25;-0.80;99.90
12957;DHT22;6543;48.836;10.092;2023-01-29T05:47:55;-0.70;99.90
12957;DHT22;6543;48.836;10.092;2023-01-29T05:50:23;-0.70;99.90
12957;DHT22;6543;48.836;10.092;2023-01-29T05:52:55;-0.70;99.90
12957;DHT22;6543;48.836;10.092;2023-01-29T05:55:23;-0.70;99.90
12957;DHT22;6543;48.836;10.092;2023-01-29T05:57:50;-0.80;99.90
12957;DHT22;6543;48.836;10.092;2023-01-29T06:00:18;-0.80;99.90
12957;DHT22;6543;48.836;10.092;2023-01-29T06:02:45;-0.80;99.90
12957;DHT22;6543;48.836;10.092;2023-01-29T06:05:12;-0.80;99.90
12957;DHT22;6543;48.836;10.092;2023-01-29T06:07:39;-0.80;99.90
12957;DHT22;6543;48.836;10.092;2023-01-29T06:10:10;-0.90;99.90
12957;DHT22;6543;48.836;10.092;2023-01-29T06:12:39;-0.80;99.90
12957;DHT22;6543;48.836;10.092;2023-01-29T06:15:06;-0.80;99.90
12957;DHT22;6543;48.836;10.092;2023-01-29T06:17:33;-0.90;99.90
12957;DHT22;6543;48.836;10.092;2023-01-29T06:20:00;-0.90;99.90
12957;DHT22;6543;48.836;10.092;2023-01-29T06:22:27;-0.90;99.90
12957;DHT22;6543;48.836;10.092;2023-01-29T06:24:54;-0.90;99.90
12957;DHT22;6543;48.836;10.092;2023-01-29T06:27:21;-0.90;99.90
12957;DHT22;6543;48.836;10.092;2023-01-29T06:29:49;-0.80;99.90
12957;DHT22;6543;48.836;10.092;2023-01-29T06:32:16;-0.90;99.90
12957;DHT22;6543;48.836;10.092;2023-01-29T06:34:43;-0.80;99.90
12957;DHT22;6543;48.836;10.092;2023-01-29T06:37:09;-0.90;99.90
12957;DHT22;6543;48.836;10.092;2023-01-29T06:39:36;-1.00;99.90
12957;DHT22;6543;48.836;10.092;2023-01-29T06:42:03;-1.20;99.90
12957;DHT22;6543;48.836;10.092;2023-01-29T06:44:30;-1.20;99.90
12957;DHT22;6543;48.836;10.092;2023-01-29T06:46:58;-1.20;99.90
12957;DHT22;6543;48.836;10.092;2023-01-29T06:49:25;-1.10;99.90
12957;DHT22;6543;48.836;10.092;2023-01-29T06:51:52;-1.00;99.90
12957;DHT22;6543;48.836;10.092;2023-01-29T06:54:19;-1.10;99.90
12957;DHT22;6543;48.836;10.092;2023-01-29T06:56:45;-1.00;99.90
12957;DHT22;6543;48.836;10.092;2023-01-29T06:59:12;-0.90;99.90
12957;DHT22;6543;48.836;10.092;2023-01-29T07:01:39;-1.00;99.90
12957;DHT22;6543;48.836;10.092;2023-01-29T07:04:08;-0.90;99.90
12957;DHT22;6543;48.836;10.092;2023-01-29T07:06:35;-0.90;99.90
12957;DHT22;6543;48.836;10.092;2023-01-29T07:09:02;-0.90;99.90
12957;DHT22;6543;48.836;10.092;2023-01-29T07:11:29;-0.90;99.90
12957;DHT22;6543;48.836;10.092;2023-01-29T07:13:56;-0.90;99.90
12957;DHT22;6543;48.836;10.092;2023-01-29T07:16:23;-0.90;99.90
12957;DHT22;6543;48.836;10.092;2023-01-29T07:18:50;-1.00;99.90
12957;DHT22;6543;48.836;10.092;2023-01-29T07:21:19;-1.10;99.90
12957;DHT22;6543;48.836;10.092;2023-01-29T07:23:45;-1.10;99.90
12957;DHT22;6543;48.836;10.092;2023-01-29T07:26:12;-1.10;99.90
12957;DHT22;6543;48.836;10.092;2023-01-29T07:28:39;-1.10;99.90
12957;DHT22;6543;48.836;10.092;2023-01-29T07:31:07;-1.10;99.90
12957;DHT22;6543;48.836;10.092;2023-01-29T07:33:34;-1.10;99.90
12957;DHT22;6543;48.836;10.092;2023-01-29T07:36:00;-1.00;99.90
12957;DHT22;6543;48.836;10.092;2023-01-29T07:38:29;-0.80;99.90
12957;DHT22;6543;48.836;10.092;2023-01-29T07:40:55;-0.80;99.90
12957;DHT22;6543;48.836;10.092;2023-01-29T07:43:22;-0.80;99.90
12957;DHT22;6543;48.836;10.092;2023-01-29T07:45:50;-0.70;99.90
12957;DHT22;6543;48.836;10.092;2023-01-29T07:48:17;-0.70;99.90
12957;DHT22;6543;48.836;10.092;2023-01-29T07:50:44;-0.80;99.90
12957;DHT22;6543;48.836;10.092;2023-01-29T07:53:13;-0.60;99.90
12957;DHT22;6543;48.836;10.092;2023-01-29T07:55:42;-0.60;99.90
12957;DHT22;6543;48.836;10.092;2023-01-29T07:58:09;-0.60;99.90
12957;DHT22;6543;48.836;10.092;2023-01-29T08:00:36;-0.60;99.90
12957;DHT22;6543;48.836;10.092;2023-01-29T08:03:04;-0.70;99.90
12957;DHT22;6543;48.836;10.092;2023-01-29T08:05:31;-0.70;99.90
12957;DHT22;6543;48.836;10.092;2023-01-29T08:07:58;-0.70;99.90
12957;DHT22;6543;48.836;10.092;2023-01-29T08:10:25;-0.60;99.90
12957;DHT22;6543;48.836;10.092;2023-01-29T08:12:57;-0.60;99.90
12957;DHT22;6543;48.836;10.092;2023-01-29T08:15:25;-0.80;99.90
12957;DHT22;6543;48.836;10.092;2023-01-29T08:17:52;-0.70;99.90
12957;DHT22;6543;48.836;10.092;2023-01-29T08:20:20;-0.70;99.90
12957;DHT22;6543;48.836;10.092;2023-01-29T08:22:47;-0.70;99.90
12957;DHT22;6543;48.836;10.092;2023-01-29T08:25:14;-0.70;99.90
12957;DHT22;6543;48.836;10.092;2023-01-29T08:27:41;-0.60;99.90
12957;DHT22;6543;48.836;10.092;2023-01-29T08:30:11;-0.50;99.90
12957;DHT22;6543;48.836;10.092;2023-01-29T08:32:38;-0.50;99.90
12957;DHT22;6543;48.836;10.092;2023-01-29T08:35:05;-0.50;99.90
12957;DHT22;6543;48.836;10.092;2023-01-29T08:37:32;-0.40;99.90
12957;DHT22;6543;48.836;10.092;2023-01-29T08:39:58;-0.50;99.90
12957;DHT22;6543;48.836;10.092;2023-01-29T08:42:25;-0.40;99.90
12957;DHT22;6543;48.836;10.092;2023-01-29T08:44:52;-0.40;99.90
12957;DHT22;6543;48.836;10.092;2023-01-29T08:47:20;-0.20;99.90
12957;DHT22;6543;48.836;10.092;2023-01-29T08:49:47;-0.50;99.90
12957;DHT22;6543;48.836;10.092;2023-01-29T08:52:14;-0.70;99.90
12957;DHT22;6543;48.836;10.092;2023-01-29T08:54:42;-0.60;99.90
12957;DHT22;6543;48.836;10.092;2023-01-29T08:57:09;-0.40;99.90
12957;DHT22;6543;48.836;10.092;2023-01-29T08:59:36;-0.50;99.90
12957;DHT22;6543;48.836;10.092;2023-01-29T09:02:04;-0.50;99.90
12957;DHT22;6543;48.836;10.092;2023-01-29T09:04:32;-0.50;99.90
12957;DHT22;6543;48.836;10.092;2023-01-29T09:06:59;-0.40;99.90
12957;DHT22;6543;48.836;10.092;2023-01-29T09:09:25;-0.50;99.90
12957;DHT22;6543;48.836;10.092;2023-01-29T09:11:52;-0.50;99.90
12957;DHT22;6543;48.836;10.092;2023-01-29T09:14:19;-0.40;99.90
12957;DHT22;6543;48.836;10.092;2023-01-29T09:16:46;-0.30;99.90
12957;DHT22;6543;48.836;10.092;2023-01-29T09:19:13;-0.30;99.90
12957;DHT22;6543;48.836;10.092;2023-01-29T09:21:41;-0.10;99.90
12957;DHT22;6543;48.836;10.092;2023-01-29T09:24:08;-0.10;99.90
12957;DHT22;6543;48.836;10.092;2023-01-29T09:26:35;-0.20;99.90
12957;DHT22;6543;48.836;10.092;2023-01-29T09:29:04;-0.10;99.90
12957;DHT22;6543;48.836;10.092;2023-01-29T09:31:31;0.00;99.90
12957;DHT22;6543;48.836;10.092;2023-01-29T09:33:57;0.20;99.90
12957;DHT22;6543;48.836;10.092;2023-01-29T09:36:24;0.40;99.90
12957;DHT22;6543;48.836;10.092;2023-01-29T09:38:52;0.40;99.90
12957;DHT22;6543;48.836;10.092;2023-01-29T09:41:28;0.20;99.90
12957;DHT22;6543;48.836;10.092;2023-01-29T09:44:01;0.20;99.90
12957;DHT22;6543;48.836;10.092;2023-01-29T09:46:34;0.20;99.90
12957;DHT22;6543;48.836;10.092;2023-01-29T09:49:07;0.20;99.90
12957;DHT22;6543;48.836;10.092;2023-01-29T09:51:39;0.20;99.90
12957;DHT22;6543;48.836;10.092;2023-01-29T09:54:17;0.20;99.90
12957;DHT22;6543;48.836;10.092;2023-01-29T09:56:45;0.10;99.90
12957;DHT22;6543;48.836;10.092;2023-01-29T09:59:22;0.00;99.90
12957;DHT22;6543;48.836;10.092;2023-01-29T10:01:58;0.20;99.90
12957;DHT22;6543;48.836;10.092;2023-01-29T10:04:51;0.20;99.90
12957;DHT22;6543;48.836;10.092;2023-01-29T10:07:30;0.50;99.90
12957;DHT22;6543;48.836;10.092;2023-01-29T10:10:24;0.20;99.90
12957;DHT22;6543;48.836;10.092;2023-01-29T10:13:01;0.40;99.90
12957;DHT22;6543;48.836;10.092;2023-01-29T10:15:41;0.40;99.90
12957;DHT22;6543;48.836;10.092;2023-01-29T10:18:43;0.60;99.90
12957;DHT22;6543;48.836;10.092;2023-01-29T10:21:24;0.70;99.90
12957;DHT22;6543;48.836;10.092;2023-01-29T10:24:00;1.00;99.90
12957;DHT22;6543;48.836;10.092;2023-01-29T10:26:34;1.40;99.90
12957;DHT22;6543;48.836;10.092;2023-01-29T10:29:06;1.40;99.90
12957;DHT22;6543;48.836;10.092;2023-01-29T10:31:36;1.30;99.90
12957;DHT22;6543;48.836;10.092;2023-01-29T10:34:09;1.70;99.90
12957;DHT22;6543;48.836;10.092;2023-01-29T10:36:41;1.60;99.90
12957;DHT22;6543;48.836;10.092;2023-01-29T10:39:14;1.80;99.90
12957;DHT22;6543;48.836;10.092;2023-01-29T10:41:53;1.80;99.90
12957;DHT22;6543;48.836;10.092;2023-01-29T10:44:29;2.10;99.90
12957;DHT22;6543;48.836;10.092;2023-01-29T10:47:13;1.70;99.90
12957;DHT22;6543;48.836;10.092;2023-01-29T10:49:54;1.70;99.90
12957;DHT22;6543;48.836;10.092;2023-01-29T10:52:37;1.70;99.90
12957;DHT22;6543;48.836;10.092;2023-01-29T10:55:18;1.70;99.90
12957;DHT22;6543;48.836;10.092;2023-01-29T10:57:59;1.90;99.90
12957;DHT22;6543;48.836;10.092;2023-01-29T11:00:29;2.00;99.90
12957;DHT22;6543;48.836;10.092;2023-01-29T11:03:11;2.10;99.90
12957;DHT22;6543;48.836;10.092;2023-01-29T11:05:43;1.90;99.90
12957;DHT22;6543;48.836;10.092;2023-01-29T11:08:15;1.70;99.90
12957;DHT22;6543;48.836;10.092;2023-01-29T11:10:47;1.30;99.90
12957;DHT22;6543;48.836;10.092;2023-01-29T11:13:17;1.60;99.90
12957;DHT22;6543;48.836;10.092;2023-01-29T11:15:44;1.40;99.90
12957;DHT22;6543;48.836;10.092;2023-01-29T11:18:12;1.30;99.90
12957;DHT22;6543;48.836;10.092;2023-01-29T11:20:40;1.40;99.90
12957;DHT22;6543;48.836;10.092;2023-01-29T11:23:24;1.20;99.90
12957;DHT22;6543;48.836;10.092;2023-01-29T11:25:51;1.40;99.90
12957;DHT22;6543;48.836;10.092;2023-01-29T11:28:35;1.70;99.90
12957;DHT22;6543;48.836;10.092;2023-01-29T11:31:03;1.70;99.90
12957;DHT22;6543;48.836;10.092;2023-01-29T11:33:30;1.60;99.90
12957;DHT22;6543;48.836;10.092;2023-01-29T11:35:57;1.30;99.90
12957;DHT22;6543;48.836;10.092;2023-01-29T11:38:25;1.30;99.90
12957;DHT22;6543;48.836;10.092;2023-01-29T11:40:53;1.30;99.90
12957;DHT22;6543;48.836;10.092;2023-01-29T11:43:30;1.20;99.90
12957;DHT22;6543;48.836;10.092;2023-01-29T11:46:00;1.20;99.90
12957;DHT22;6543;48.836;10.092;2023-01-29T11:48:34;1.30;99.90
12957;DHT22;6543;48.836;10.092;2023-01-29T11:51:05;1.60;99.90
12957;DHT22;6543;48.836;10.092;2023-01-29T11:53:37;1.40;99.90
12957;DHT22;6543;48.836;10.092;2023-01-29T11:56:16;1.70;99.90
12957;DHT22;6543;48.836;10.092;2023-01-29T11:58:44;1.80;99.90
12957;DHT22;6543;48.836;10.092;2023-01-29T12:01:15;1.60;99.90
12957;DHT22;6543;48.836;10.092;2023-01-29T12:03:45;1.60;99.90
12957;DHT22;6543;48.836;10.092;2023-01-29T12:06:17;1.50;99.90
12957;DHT22;6543;48.836;10.092;2023-01-29T12:08:53;1.40;99.90
12957;DHT22;6543;48.836;10.092;2023-01-29T12:11:26;1.50;99.90
12957;DHT22;6543;48.836;10.092;2023-01-29T12:13:53;1.60;99.90
12957;DHT22;6543;48.836;10.092;2023-01-29T12:16:25;1.90;99.90
12957;DHT22;6543;48.836;10.092;2023-01-29T12:18:57;2.20;99.90
12957;DHT22;6543;48.836;10.092;2023-01-29T12:21:31;1.80;99.90
12957;DHT22;6543;48.836;10.092;2023-01-29T12:24:02;1.50;99.90
12957;DHT22;6543;48.836;10.092;2023-01-29T12:26:34;1.90;99.90
12957;DHT22;6543;48.836;10.092;2023-01-29T12:29:22;1.70;99.90
12957;DHT22;6543;48.836;10.092;2023-01-29T12:31:58;1.80;99.90
12957;DHT22;6543;48.836;10.092;2023-01-29T12:34:34;1.70;99.90
12957;DHT22;6543;48.836;10.092;2023-01-29T12:37:10;1.50;99.90
12957;DHT22;6543;48.836;10.092;2023-01-29T12:39:37;1.40;99.90
12957;DHT22;6543;48.836;10.092;2023-01-29T12:42:09;1.70;99.90
12957;DHT22;6543;48.836;10.092;2023-01-29T12:44:40;1.80;99.90
12957;DHT22;6543;48.836;10.092;2023-01-29T12:47:14;1.60;99.90
12957;DHT22;6543;48.836;10.092;2023-01-29T12:49:45;1.40;99.90
12957;DHT22;6543;48.836;10.092;2023-01-29T12:52:16;1.70;99.90
12957;DHT22;6543;48.836;10.092;2023-01-29T12:54:49;1.90;99.90
12957;DHT22;6543;48.836;10.092;2023-01-29T12:57:20;1.90;99.90
12957;DHT22;6543;48.836;10.092;2023-01-29T12:59:52;1.80;99.90
12957;DHT22;6543;48.836;10.092;2023-01-29T13:02:31;2.00;99.90
12957;DHT22;6543;48.836;10.092;2023-01-29T13:05:03;2.10;99.90
12957;DHT22;6543;48.836;10.092;2023-01-29T13:07:35;2.10;99.90
12957;DHT22;6543;48.836;10.092;2023-01-29T13:10:08;2.10;99.90
12957;DHT22;6543;48.836;10.092;2023-01-29T13:12:37;2.20;99.90
12957;DHT22;6543;48.836;10.092;2023-01-29T13:15:13;2.00;99.90
12957;DHT22;6543;48.836;10.092;2023-01-29T13:17:46;2.40;99.90
12957;DHT22;6543;48.836;10.092;2023-01-29T13:20:18;2.30;99.90
12957;DHT22;6543;48.836;10.092;2023-01-29T13:22:47;2.10;99.90
12957;DHT22;6543;48.836;10.092;2023-01-29T13:25:17;2.20;99.90
12957;DHT22;6543;48.836;10.092;2023-01-29T13:27:45;2.30;99.90
12957;DHT22;6543;48.836;10.092;2023-01-29T13:30:27;2.20;99.90
12957;DHT22;6543;48.836;10.092;2023-01-29T13:32:58;2.00;99.90
12957;DHT22;6543;48.836;10.092;2023-01-29T13:35:35;1.90;99.90
12957;DHT22;6543;48.836;10.092;2023-01-29T13:38:04;1.90;99.90
12957;DHT22;6543;48.836;10.092;2023-01-29T13:40:32;1.80;99.90
12957;DHT22;6543;48.836;10.092;2023-01-29T13:43:00;2.20;99.90
12957;DHT22;6543;48.836;10.092;2023-01-29T13:45:33;2.20;99.90
12957;DHT22;6543;48.836;10.092;2023-01-29T13:48:16;2.20;99.90
12957;DHT22;6543;48.836;10.092;2023-01-29T13:50:45;2.10;99.90
12957;DHT22;6543;48.836;10.092;2023-01-29T13:53:20;1.60;99.90
12957;DHT22;6543;48.836;10.092;2023-01-29T13:55:47;1.50;99.90
12957;DHT22;6543;48.836;10.092;2023-01-29T13:58:15;1.70;99.90
12957;DHT22;6543;48.836;10.092;2023-01-29T14:00:52;1.60;99.90
12957;DHT22;6543;48.836;10.092;2023-01-29T14:03:56;1.50;99.90
12957;DHT22;6543;48.836;10.092;2023-01-29T14:06:47;1.70;99.90
12957;DHT22;6543;48.836;10.092;2023-01-29T14:12:35;1.80;99.90
12957;DHT22;6543;48.836;10.092;2023-01-29T14:15:16;1.60;99.90
12957;DHT22;6543;48.836;10.092;2023-01-29T14:18:01;1.50;99.90
12957;DHT22;6543;48.836;10.092;2023-01-29T14:20:34;1.80;99.90
12957;DHT22;6543;48.836;10.092;2023-01-29T14:23:04;1.80;99.90
12957;DHT22;6543;48.836;10.092;2023-01-29T14:25:34;1.60;99.90
12957;DHT22;6543;48.836;10.092;2023-01-29T14:28:03;1.70;99.90
12957;DHT22;6543;48.836;10.092;2023-01-29T14:30:39;1.70;99.90
12957;DHT22;6543;48.836;10.092;2023-01-29T14:33:25;1.70;99.90
12957;DHT22;6543;48.836;10.092;2023-01-29T14:35:55;1.70;99.90
12957;DHT22;6543;48.836;10.092;2023-01-29T14:38:24;1.80;99.90
12957;DHT22;6543;48.836;10.092;2023-01-29T14:41:02;1.70;99.90
12957;DHT22;6543;48.836;10.092;2023-01-29T14:43:30;1.40;99.90
12957;DHT22;6543;48.836;10.092;2023-01-29T14:49:02;1.50;99.90
12957;DHT22;6543;48.836;10.092;2023-01-29T14:51:35;1.30;99.90
12957;DHT22;6543;48.836;10.092;2023-01-29T14:54:11;1.10;99.90
12957;DHT22;6543;48.836;10.092;2023-01-29T14:56:43;1.20;99.90
12957;DHT22;6543;48.836;10.092;2023-01-29T14:59:15;1.20;99.90
12957;DHT22;6543;48.836;10.092;2023-01-29T15:01:47;1.30;99.90
12957;DHT22;6543;48.836;10.092;2023-01-29T15:04:20;1.40;99.90
12957;DHT22;6543;48.836;10.092;2023-01-29T15:06:54;1.30;99.90
12957;DHT22;6543;48.836;10.092;2023-01-29T15:09:34;1.30;99.90
12957;DHT22;6543;48.836;10.092;2023-01-29T15:12:12;1.30;99.90
12957;DHT22;6543;48.836;10.092;2023-01-29T15:14:48;1.30;99.90
12957;DHT22;6543;48.836;10.092;2023-01-29T15:17:24;1.30;99.90
12957;DHT22;6543;48.836;10.092;2023-01-29T15:19:52;1.30;99.90
12957;DHT22;6543;48.836;10.092;2023-01-29T15:22:23;1.30;99.90
12957;DHT22;6543;48.836;10.092;2023-01-29T15:25:03;1.10;99.90
12957;DHT22;6543;48.836;10.092;2023-01-29T15:27:30;1.00;99.90
12957;DHT22;6543;48.836;10.092;2023-01-29T15:30:00;1.00;99.90
12957;DHT22;6543;48.836;10.092;2023-01-29T15:32:32;0.90;99.90
12957;DHT22;6543;48.836;10.092;2023-01-29T15:35:05;0.90;99.90
12957;DHT22;6543;48.836;10.092;2023-01-29T15:37:35;0.80;99.90
12957;DHT22;6543;48.836;10.092;2023-01-29T15:40:03;0.80;99.90
12957;DHT22;6543;48.836;10.092;2023-01-29T15:42:42;0.80;99.90
12957;DHT22;6543;48.836;10.092;2023-01-29T15:45:21;0.70;99.90
12957;DHT22;6543;48.836;10.092;2023-01-29T15:47:48;0.70;99.90
12957;DHT22;6543;48.836;10.092;2023-01-29T15:50:16;0.70;99.90
12957;DHT22;6543;48.836;10.092;2023-01-29T15:52:47;0.60;99.90
12957;DHT22;6543;48.836;10.092;2023-01-29T15:55:15;0.40;99.90
12957;DHT22;6543;48.836;10.092;2023-01-29T15:57:42;0.30;99.90
12957;DHT22;6543;48.836;10.092;2023-01-29T16:00:20;0.30;99.90
12957;DHT22;6543;48.836;10.092;2023-01-29T16:02:47;0.30;99.90
12957;DHT22;6543;48.836;10.092;2023-01-29T16:05:15;0.30;99.90
12957;DHT22;6543;48.836;10.092;2023-01-29T16:07:45;0.20;99.90
12957;DHT22;6543;48.836;10.092;2023-01-29T16:10:17;0.20;99.90
12957;DHT22;6543;48.836;10.092;2023-01-29T16:12:45;0.10;99.90
12957;DHT22;6543;48.836;10.092;2023-01-29T16:15:26;0.10;99.90
12957;DHT22;6543;48.836;10.092;2023-01-29T16:17:54;0.10;99.90